Time;durP1;ratioP1;P1;durP2;ratioP2;P2;SDS_P1;SDS_P2;PMS_P1;PMS_P2;Temp;Humidity;BMP_temperature;BMP_pressure;BME280_temperature;BME280_humidity;BME280_pressure;Samples;Min_cycle;Max_cycle;Signal;HPM_P1;HPM_P2
2022/01/22 00:02:04;;;;;;;17.33;8.68;;;-0.40;98.00;;;;;;5039227;28;20315;-69
2022/01/22 00:04:33;;;;;;;20.20;8.82;;;-0.40;98.00;;;;;;5040645;28;20097;-69
2022/01/22 00:07:02;;;;;;;22.83;9.32;;;-0.40;98.00;;;;;;5049484;28;20029;-68
2022/01/22 00:09:35;;;;;;;17.73;8.02;;;-0.40;97.60;;;;;;5051659;28;20061;-69
2022/01/22 00:12:02;;;;;;;15.60;8.35;;;-0.40;98.00;;;;;;5044653;28;20029;-69
2022/01/22 00:14:28;;;;;;;20.80;9.50;;;-0.40;98.00;;;;;;5045249;28;20087;-70
2022/01/22 00:17:01;;;;;;;14.82;9.00;;;-0.40;98.00;;;;;;5041447;28;20021;-69
2022/01/22 00:19:27;;;;;;;25.88;9.80;;;-0.40;98.00;;;;;;5047484;28;20040;-69
2022/01/22 00:21:58;;;;;;;20.63;9.25;;;-0.40;98.00;;;;;;5043712;28;20040;-69
2022/01/22 00:24:23;;;;;;;17.40;8.73;;;-0.40;98.00;;;;;;5036890;28;20088;-68
2022/01/22 00:26:52;;;;;;;20.38;9.02;;;-0.40;97.90;;;;;;5041464;28;20020;-67
2022/01/22 00:29:17;;;;;;;17.52;9.15;;;-0.40;98.00;;;;;;5036127;28;20028;-68
2022/01/22 00:31:44;;;;;;;14.25;8.00;;;-0.40;98.00;;;;;;5048585;28;20021;-68
2022/01/22 00:34:09;;;;;;;21.08;8.90;;;-0.40;98.00;;;;;;5044844;28;20314;-68
2022/01/22 00:36:37;;;;;;;15.82;9.13;;;-0.40;98.00;;;;;;5047340;28;20025;-69
2022/01/22 00:39:03;;;;;;;16.45;7.93;;;-0.40;97.70;;;;;;5043153;28;20330;-69
2022/01/22 00:41:29;;;;;;;20.40;9.85;;;-0.40;98.00;;;;;;5045043;28;20036;-69
2022/01/22 00:43:55;;;;;;;17.80;10.00;;;-0.40;97.90;;;;;;5048446;28;20029;-70
2022/01/22 00:46:21;;;;;;;23.52;9.35;;;-0.40;98.00;;;;;;5034788;28;20061;-69
2022/01/22 00:48:47;;;;;;;27.48;9.88;;;-0.40;97.70;;;;;;5047034;28;20029;-68
2022/01/22 00:51:13;;;;;;;18.52;9.52;;;-0.40;97.50;;;;;;5043728;28;20032;-69
2022/01/22 00:53:38;;;;;;;18.20;9.80;;;-0.40;97.80;;;;;;5049299;28;20190;-69
2022/01/22 00:56:04;;;;;;;23.60;9.57;;;-0.40;97.80;;;;;;5041773;28;20453;-69
2022/01/22 00:58:30;;;;;;;21.88;9.50;;;-0.40;98.00;;;;;;5044513;28;20333;-69
2022/01/22 01:00:55;;;;;;;17.35;9.70;;;-0.40;97.60;;;;;;5041416;28;20025;-69
2022/01/22 01:03:21;;;;;;;16.58;9.63;;;-0.40;97.90;;;;;;5044997;28;20106;-69
2022/01/22 01:05:50;;;;;;;18.02;10.70;;;-0.40;97.70;;;;;;5047695;28;20060;-69
2022/01/22 01:08:15;;;;;;;22.17;10.15;;;-0.50;97.40;;;;;;5041579;28;20104;-69
2022/01/22 01:10:41;;;;;;;23.65;10.80;;;-0.40;97.00;;;;;;5041597;28;20061;-69
2022/01/22 01:13:08;;;;;;;19.70;10.32;;;-0.40;97.10;;;;;;5048356;28;20032;-67
2022/01/22 01:34:30;;;;;;;17.20;9.27;;;-0.40;97.60;;;;;;5057447;28;20600;-67
2022/01/22 01:36:56;;;;;;;20.45;9.55;;;-0.40;97.00;;;;;;5049414;28;20055;-68
2022/01/22 01:39:27;;;;;;;23.23;11.07;;;-0.40;97.60;;;;;;5041993;28;20033;-67
2022/01/22 01:41:59;;;;;;;18.55;8.60;;;-0.40;97.40;;;;;;5043427;28;20032;-67
2022/01/22 01:44:25;;;;;;;19.23;8.98;;;-0.40;97.10;;;;;;5044301;28;20018;-66
2022/01/22 01:46:55;;;;;;;15.55;8.57;;;-0.40;97.20;;;;;;5047681;28;20318;-66
2022/01/22 01:49:24;;;;;;;21.60;10.05;;;-0.40;97.20;;;;;;5040956;28;20076;-69
2022/01/22 01:51:50;;;;;;;13.35;8.35;;;-0.40;97.30;;;;;;5045343;28;20060;-68
2022/01/22 01:59:48;;;;;;;20.25;9.27;;;-0.40;97.60;;;;;;5046235;28;20035;-68
2022/01/22 02:02:14;;;;;;;16.30;9.85;;;-0.40;97.80;;;;;;5042509;28;20083;-68
2022/01/22 02:04:41;;;;;;;22.13;8.57;;;-0.40;97.50;;;;;;5045176;28;20017;-68
2022/01/22 02:07:07;;;;;;;15.68;8.05;;;-0.40;97.60;;;;;;5045215;28;20025;-67
2022/01/22 02:09:33;;;;;;;60.70;15.93;;;-0.40;97.80;;;;;;5041709;28;20071;-67
2022/01/22 02:12:10;;;;;;;20.25;9.10;;;-0.40;98.00;;;;;;5044959;28;20117;-67
2022/01/22 02:25:24;;;;;;;20.48;9.98;;;-0.40;98.00;;;;;;5042499;28;20132;-68
2022/01/22 02:27:50;;;;;;;18.23;9.00;;;-0.40;98.00;;;;;;5039914;28;20109;-69
2022/01/22 02:30:21;;;;;;;16.20;8.82;;;-0.30;98.00;;;;;;5052435;28;20351;-68
2022/01/22 02:35:56;;;;;;;15.52;8.43;;;-0.40;97.90;;;;;;5044121;28;20342;-68
2022/01/22 02:38:49;;;;;;;14.63;7.30;;;-0.40;98.00;;;;;;5056346;28;20055;-69
2022/01/22 02:41:16;;;;;;;15.43;8.32;;;-0.40;98.00;;;;;;5056212;28;20036;-68
2022/01/22 02:43:41;;;;;;;;;;;-0.40;98.00;;;;;;5042433;28;20022;-68
2022/01/22 02:46:07;;;;;;;21.35;8.48;;;-0.40;98.00;;;;;;5051522;28;19983;-68
2022/01/22 02:48:33;;;;;;;16.17;7.97;;;-0.40;98.00;;;;;;5050837;28;20365;-68
2022/01/22 02:50:58;;;;;;;13.70;7.90;;;-0.30;98.00;;;;;;5047015;28;20088;-68
2022/01/22 02:53:24;;;;;;;17.23;8.35;;;-0.30;98.00;;;;;;5041503;28;20034;-68
2022/01/22 02:55:50;;;;;;;17.05;7.70;;;-0.30;98.00;;;;;;5041660;28;20082;-69
2022/01/22 02:58:19;;;;;;;24.33;9.23;;;-0.30;98.00;;;;;;5052136;28;20017;-69
2022/01/22 03:00:47;;;;;;;15.30;8.32;;;-0.30;98.00;;;;;;5051265;28;20041;-68
2022/01/22 03:03:15;;;;;;;18.92;8.50;;;-0.40;98.00;;;;;;5045205;28;20315;-68
2022/01/22 03:05:41;;;;;;;20.17;8.52;;;-0.40;98.00;;;;;;5044556;28;20021;-68
2022/01/22 03:08:09;;;;;;;14.90;8.95;;;-0.40;98.00;;;;;;5046199;28;20331;-68
2022/01/22 03:10:36;;;;;;;19.77;9.10;;;-0.40;98.00;;;;;;5038537;28;20034;-68
2022/01/22 03:18:06;;;;;;;15.15;8.05;;;-0.40;98.00;;;;;;5048349;28;20029;-68
2022/01/22 03:23:12;;;;;;;18.20;8.43;;;-0.40;98.00;;;;;;5041411;28;20106;-67
2022/01/22 03:28:30;;;;;;;16.73;8.32;;;-0.40;98.00;;;;;;5050930;28;20032;-67
2022/01/22 03:30:56;;;;;;;16.95;7.60;;;-0.30;98.00;;;;;;5048901;28;20028;-69
2022/01/22 03:33:24;;;;;;;25.10;8.63;;;-0.30;98.00;;;;;;5048597;28;20028;-68
2022/01/22 03:35:55;;;;;;;18.92;7.88;;;-0.30;98.00;;;;;;5050325;28;20020;-69
2022/01/22 03:38:21;;;;;;;17.75;8.48;;;-0.30;98.00;;;;;;5042880;28;20100;-69
2022/01/22 03:40:49;;;;;;;16.35;9.00;;;-0.30;98.00;;;;;;5052531;28;20022;-68
2022/01/22 03:43:16;;;;;;;16.58;7.90;;;-0.30;98.00;;;;;;5044546;28;20017;-69
2022/01/22 03:45:41;;;;;;;16.35;8.52;;;-0.30;98.00;;;;;;5050659;28;20010;-68
2022/01/22 03:48:07;;;;;;;19.42;8.32;;;-0.30;98.00;;;;;;5042364;28;20321;-68
2022/01/22 03:50:33;;;;;;;16.30;7.95;;;-0.30;98.00;;;;;;5045223;28;20341;-68
2022/01/22 03:52:59;;;;;;;17.92;7.57;;;-0.30;98.00;;;;;;5041144;28;20115;-68
2022/01/22 03:55:54;;;;;;;15.20;7.50;;;-0.30;98.00;;;;;;5037960;28;20036;-68
2022/01/22 03:58:13;;;;;;;17.63;8.52;;;-0.30;98.00;;;;;;5048179;28;20029;-68
2022/01/22 04:00:40;;;;;;;22.67;9.85;;;-0.30;98.00;;;;;;5048620;28;20070;-68
2022/01/22 04:03:29;;;;;;;15.23;7.78;;;-0.30;98.00;;;;;;5039438;28;20029;-69
2022/01/22 04:06:20;;;;;;;15.68;7.68;;;-0.30;98.00;;;;;;5039250;28;20484;-68
2022/01/22 04:08:44;;;;;;;16.27;7.88;;;-0.30;98.00;;;;;;5042121;28;20053;-68
2022/01/22 04:11:14;;;;;;;16.63;8.15;;;-0.30;98.00;;;;;;5036042;28;20430;-68
2022/01/22 04:13:40;;;;;;;13.93;8.20;;;-0.30;98.00;;;;;;5044048;28;20025;-67
2022/01/22 04:16:07;;;;;;;16.10;7.72;;;-0.30;98.00;;;;;;5048582;28;20025;-68
2022/01/22 04:26:57;;;;;;;15.10;7.60;;;-0.30;98.00;;;;;;5048952;28;20078;-68
2022/01/22 04:29:26;;;;;;;15.05;7.88;;;-0.30;98.00;;;;;;5042703;28;20020;-68
2022/01/22 04:31:52;;;;;;;16.00;8.02;;;-0.20;98.00;;;;;;5034460;28;20108;-67
2022/01/22 04:34:18;;;;;;;15.02;7.47;;;-0.20;98.00;;;;;;5045514;28;20033;-68
2022/01/22 04:36:43;;;;;;;20.67;8.50;;;-0.20;98.00;;;;;;5037409;28;20025;-68
2022/01/22 04:39:10;;;;;;;22.08;8.43;;;-0.20;98.00;;;;;;5036622;28;20112;-68
2022/01/22 04:41:36;;;;;;;15.43;8.43;;;-0.20;98.00;;;;;;5037300;28;20022;-68
2022/01/22 04:44:04;;;;;;;17.38;9.60;;;-0.20;98.00;;;;;;5040780;28;20046;-67
2022/01/22 04:56:59;;;;;;;22.83;12.27;;;-0.10;96.90;;;;;;5044751;28;20043;-69
2022/01/22 04:59:25;;;;;;;27.20;13.73;;;-0.10;96.20;;;;;;5042311;28;20033;-68
2022/01/22 05:01:50;;;;;;;27.55;13.40;;;-0.10;96.20;;;;;;5041022;28;20021;-68
2022/01/22 05:04:16;;;;;;;29.20;13.52;;;-0.10;95.70;;;;;;5042027;28;20044;-68
2022/01/22 05:06:41;;;;;;;29.23;13.88;;;-0.10;95.30;;;;;;5040312;28;20044;-68
2022/01/22 05:09:07;;;;;;;28.50;15.60;;;-0.10;95.50;;;;;;5039468;28;20033;-68
2022/01/22 05:11:33;;;;;;;36.83;15.32;;;-0.10;95.20;;;;;;5038196;28;20071;-67
2022/01/22 05:13:58;;;;;;;27.75;13.90;;;-0.10;95.10;;;;;;5041999;28;20033;-68
2022/01/22 05:16:24;;;;;;;28.00;13.63;;;-0.10;94.80;;;;;;5047750;28;20061;-68
2022/01/22 05:19:02;;;;;;;30.90;15.57;;;-0.10;94.60;;;;;;5040208;28;20044;-68
2022/01/22 05:21:30;;;;;;;29.00;14.95;;;-0.10;94.30;;;;;;5042546;28;20104;-68
2022/01/22 05:23:59;;;;;;;28.48;13.63;;;-0.10;94.40;;;;;;5038111;28;20061;-68
2022/01/22 05:26:51;;;;;;;29.65;13.30;;;-0.10;94.40;;;;;;5048277;28;20037;-68
2022/01/22 05:39:24;;;;;;;30.98;16.23;;;-0.10;93.60;;;;;;5044362;28;20021;-69
2022/01/22 05:41:50;;;;;;;32.08;15.63;;;-0.10;93.80;;;;;;5045115;28;20032;-68
2022/01/22 05:44:16;;;;;;;28.02;14.35;;;-0.10;93.80;;;;;;5042800;28;20025;-68
2022/01/22 05:46:45;;;;;;;36.08;17.63;;;-0.10;93.70;;;;;;5043815;28;20021;-67
2022/01/22 05:49:13;;;;;;;32.10;15.60;;;0.00;93.80;;;;;;5047433;28;20025;-68
2022/01/22 05:51:41;;;;;;;46.35;17.85;;;-0.10;93.60;;;;;;5045447;28;20349;-68
2022/01/22 05:59:41;;;;;;;40.10;16.83;;;-0.10;93.20;;;;;;5047871;28;20044;-69
2022/01/22 06:02:12;;;;;;;37.35;16.75;;;-0.10;93.10;;;;;;5042036;28;20029;-68
2022/01/22 06:04:41;;;;;;;32.83;16.88;;;-0.10;92.90;;;;;;5044002;28;20028;-68
2022/01/22 06:07:10;;;;;;;40.63;18.70;;;-0.10;92.80;;;;;;5046359;28;20467;-67
2022/01/22 06:09:53;;;;;;;39.70;18.88;;;-0.10;92.80;;;;;;5039943;28;20034;-69
2022/01/22 06:12:42;;;;;;;42.55;18.13;;;-0.10;93.00;;;;;;5043674;28;20036;-67
2022/01/22 06:15:11;;;;;;;36.95;18.20;;;-0.10;92.70;;;;;;5049587;28;20025;-66
2022/01/22 06:17:37;;;;;;;47.90;19.50;;;-0.10;92.60;;;;;;5043449;28;20334;-67
2022/01/22 06:20:04;;;;;;;36.85;17.52;;;-0.10;92.60;;;;;;5049095;28;20028;-67
2022/01/22 06:22:44;;;;;;;39.90;18.98;;;-0.10;92.40;;;;;;5047858;28;20040;-67
2022/01/22 06:25:13;;;;;;;38.88;18.38;;;-0.10;92.10;;;;;;5045310;28;20041;-68
2022/01/22 06:27:38;;;;;;;38.83;19.42;;;0.00;92.50;;;;;;5044701;28;20116;-68
2022/01/22 06:30:05;;;;;;;38.60;18.98;;;0.00;92.60;;;;;;5041696;28;20390;-68
2022/01/22 06:32:30;;;;;;;39.00;19.95;;;0.00;92.50;;;;;;5045478;28;20103;-69
2022/01/22 06:34:56;;;;;;;38.10;18.23;;;0.00;92.60;;;;;;5042024;28;20040;-69
2022/01/22 06:37:22;;;;;;;32.60;17.83;;;0.00;92.70;;;;;;5048188;28;20057;-68
2022/01/22 06:42:32;;;;;;;40.73;17.40;;;0.00;93.10;;;;;;5043818;28;20028;-68
2022/01/22 06:44:59;;;;;;;39.72;17.58;;;0.00;93.50;;;;;;5049282;28;20656;-68
2022/01/22 06:47:25;;;;;;;36.42;18.00;;;0.00;93.80;;;;;;5052530;28;20021;-68
2022/01/22 06:49:51;;;;;;;40.92;20.10;;;0.00;93.80;;;;;;5048017;28;20029;-67
2022/01/22 06:52:17;;;;;;;42.65;19.60;;;0.00;93.80;;;;;;5048264;28;20091;-68
2022/01/22 06:54:43;;;;;;;37.83;19.55;;;0.00;93.70;;;;;;5042736;28;20373;-69
2022/01/22 06:57:09;;;;;;;44.28;22.83;;;0.00;93.80;;;;;;5047331;28;20104;-67
2022/01/22 06:59:36;;;;;;;44.63;21.35;;;0.00;93.80;;;;;;5049778;28;20059;-68
2022/01/22 07:02:02;;;;;;;47.28;22.90;;;0.00;93.80;;;;;;5043352;28;20017;-68
2022/01/22 07:04:31;;;;;;;43.70;21.55;;;0.00;93.90;;;;;;5042197;28;20024;-69
2022/01/22 07:06:57;;;;;;;45.05;21.10;;;0.00;94.00;;;;;;5045105;28;20162;-69
2022/01/22 07:09:23;;;;;;;40.17;19.70;;;0.00;94.40;;;;;;5038329;28;20078;-68
2022/01/22 07:11:49;;;;;;;45.85;24.30;;;0.00;94.10;;;;;;5042848;28;20025;-67
2022/01/22 07:14:16;;;;;;;38.95;22.00;;;0.00;94.10;;;;;;5045849;28;20021;-68
2022/01/22 07:16:41;;;;;;;46.45;22.90;;;0.00;93.90;;;;;;5050026;28;20033;-68
2022/01/22 07:19:08;;;;;;;47.80;25.40;;;0.00;94.10;;;;;;5044021;28;20082;-68
2022/01/22 07:21:36;;;;;;;39.83;19.25;;;0.00;94.20;;;;;;5043484;28;20025;-68
2022/01/22 07:26:28;;;;;;;36.88;19.08;;;0.00;94.50;;;;;;5046365;28;20025;-68
2022/01/22 07:28:53;;;;;;;38.72;20.40;;;0.00;94.40;;;;;;5049708;28;20441;-68
2022/01/22 07:31:20;;;;;;;45.65;21.83;;;0.00;94.70;;;;;;5039697;28;20026;-68
2022/01/22 07:33:47;;;;;;;44.78;21.95;;;0.00;94.50;;;;;;5048521;28;20310;-68
2022/01/22 07:36:13;;;;;;;51.25;25.65;;;0.10;94.80;;;;;;5048156;28;20292;-69
2022/01/22 07:38:39;;;;;;;49.53;25.05;;;0.10;94.80;;;;;;5039337;28;20026;-68
2022/01/22 07:41:08;;;;;;;53.38;25.92;;;0.10;94.60;;;;;;5040436;28;20056;-68
2022/01/22 07:43:35;;;;;;;46.70;23.75;;;0.20;94.80;;;;;;5049290;28;20044;-68
2022/01/22 07:46:00;;;;;;;45.13;21.55;;;0.10;94.90;;;;;;5048229;28;20060;-67
2022/01/22 07:48:26;;;;;;;51.38;25.25;;;0.20;95.40;;;;;;5042122;28;20430;-68
2022/01/22 07:50:52;;;;;;;49.47;25.58;;;0.20;95.60;;;;;;5044856;28;20032;-68
2022/01/22 07:53:18;;;;;;;64.13;31.88;;;0.20;95.50;;;;;;5045706;28;20035;-68
2022/01/22 07:55:43;;;;;;;46.83;22.45;;;0.20;95.70;;;;;;5043193;28;20580;-68
2022/01/22 07:58:11;;;;;;;45.95;26.10;;;0.20;95.60;;;;;;5038880;28;20037;-68
2022/01/22 08:00:37;;;;;;;43.20;21.67;;;0.20;95.80;;;;;;5046585;28;20078;-67
2022/01/22 08:03:06;;;;;;;44.13;20.02;;;0.20;96.00;;;;;;5055994;28;20410;-68
2022/01/22 08:05:31;;;;;;;44.17;21.77;;;0.20;96.20;;;;;;5050911;28;20025;-67
2022/01/22 08:07:57;;;;;;;35.75;19.90;;;0.20;96.10;;;;;;5042812;28;20299;-68
2022/01/22 08:10:23;;;;;;;39.70;20.17;;;0.20;96.40;;;;;;5043109;28;20110;-67
2022/01/22 08:12:50;;;;;;;38.60;19.05;;;0.20;96.30;;;;;;5050236;28;20115;-68
2022/01/22 08:15:17;;;;;;;40.72;21.02;;;0.30;96.40;;;;;;5044492;28;20029;-68
2022/01/22 08:17:42;;;;;;;41.67;21.58;;;0.30;96.70;;;;;;5043403;28;20033;-68
2022/01/22 08:20:11;;;;;;;50.53;25.48;;;0.30;96.50;;;;;;5040649;28;20056;-67
2022/01/22 08:22:37;;;;;;;49.10;25.40;;;0.30;96.70;;;;;;5047746;28;20354;-67
2022/01/22 08:25:03;;;;;;;46.40;26.00;;;0.30;96.90;;;;;;5050011;28;20045;-68
2022/01/22 08:29:56;;;;;;;42.33;21.42;;;0.40;97.10;;;;;;5041563;28;20032;-68
2022/01/22 08:32:58;;;;;;;41.47;21.25;;;0.40;97.30;;;;;;5035713;28;20041;-68
2022/01/22 08:38:06;;;;;;;39.33;19.95;;;0.50;97.60;;;;;;5045772;28;20036;-69
2022/01/22 08:40:31;;;;;;;44.80;21.05;;;0.50;98.00;;;;;;5039331;28;21623;-68
2022/01/22 08:42:57;;;;;;;43.92;22.30;;;0.60;98.00;;;;;;5052364;28;20070;-69
2022/01/22 08:45:23;;;;;;;36.50;19.13;;;0.60;98.00;;;;;;5049682;28;20021;-67
2022/01/22 08:47:48;;;;;;;40.03;18.67;;;0.60;98.00;;;;;;5036548;28;20434;-68
2022/01/22 08:50:17;;;;;;;36.25;20.17;;;0.60;98.00;;;;;;5040822;28;20155;-69
2022/01/22 08:52:46;;;;;;;32.85;18.63;;;0.60;98.00;;;;;;5040506;28;20033;-68
2022/01/22 08:55:13;;;;;;;37.03;19.35;;;0.70;98.00;;;;;;5039560;28;20029;-69
2022/01/22 08:57:39;;;;;;;40.05;20.00;;;0.70;98.00;;;;;;5045165;28;20459;-69
2022/01/22 09:00:06;;;;;;;37.78;19.83;;;0.70;98.00;;;;;;5040107;28;20025;-68
2022/01/22 09:02:34;;;;;;;40.58;21.63;;;0.70;98.00;;;;;;5038230;28;20433;-68
2022/01/22 09:05:03;;;;;;;41.45;20.00;;;0.70;98.00;;;;;;5044808;28;20028;-68
2022/01/22 09:07:29;;;;;;;42.60;20.63;;;0.70;98.00;;;;;;5043533;28;20022;-67
2022/01/22 09:09:57;;;;;;;45.33;23.50;;;0.70;98.00;;;;;;5042023;28;20108;-67
2022/01/22 09:12:23;;;;;;;41.60;20.48;;;0.70;98.00;;;;;;5047436;28;20096;-67
2022/01/22 09:14:48;;;;;;;45.67;20.85;;;0.70;98.00;;;;;;5052781;28;20111;-67
2022/01/22 09:17:17;;;;;;;44.28;19.90;;;0.70;98.00;;;;;;5060537;28;20022;-67
2022/01/22 09:19:46;;;;;;;47.40;20.38;;;0.80;98.00;;;;;;5047860;28;20112;-68
2022/01/22 09:22:12;;;;;;;41.53;20.98;;;0.80;98.00;;;;;;5050212;28;20053;-68
2022/01/22 09:24:38;;;;;;;35.90;19.55;;;0.80;98.00;;;;;;5042704;28;20137;-69
2022/01/22 09:27:05;;;;;;;38.50;19.13;;;0.80;98.00;;;;;;5038506;28;20057;-69
2022/01/22 09:29:38;;;;;;;40.15;20.00;;;0.80;98.00;;;;;;5039129;28;20110;-69
2022/01/22 09:32:04;;;;;;;42.63;21.27;;;0.80;98.00;;;;;;5040423;28;20033;-69
2022/01/22 09:34:32;;;;;;;39.42;19.75;;;0.80;98.00;;;;;;5040139;28;20033;-69
2022/01/22 09:37:07;;;;;;;40.83;21.05;;;0.80;98.00;;;;;;5040788;28;20037;-69
2022/01/22 09:39:32;;;;;;;34.70;18.30;;;0.70;98.00;;;;;;5041407;28;20060;-68
2022/01/22 09:41:58;;;;;;;41.15;22.85;;;0.70;98.00;;;;;;5042311;28;20072;-68
2022/01/22 09:44:24;;;;;;;47.45;20.15;;;0.70;98.00;;;;;;5039988;28;20017;-67
2022/01/22 09:46:51;;;;;;;43.72;22.67;;;0.70;98.00;;;;;;5037306;28;20156;-68
2022/01/22 09:49:16;;;;;;;43.13;22.13;;;0.70;98.00;;;;;;5047641;28;20044;-69
2022/01/22 09:51:45;;;;;;;37.58;21.05;;;0.70;98.00;;;;;;5039301;28;20033;-69
2022/01/22 09:54:12;;;;;;;47.08;21.92;;;0.60;98.00;;;;;;5039988;28;20030;-69
2022/01/22 09:56:40;;;;;;;44.90;22.35;;;0.70;98.00;;;;;;5044020;28;20068;-67
2022/01/22 09:59:06;;;;;;;47.35;19.90;;;0.60;98.00;;;;;;5044861;28;20040;-69
2022/01/22 10:01:34;;;;;;;50.30;22.75;;;0.60;98.00;;;;;;5046248;28;20033;-69
2022/01/22 10:04:04;;;;;;;49.78;22.23;;;0.70;98.00;;;;;;5041499;28;20318;-69
2022/01/22 10:06:32;;;;;;;42.80;22.20;;;0.60;98.00;;;;;;5042418;28;20100;-69
2022/01/22 10:09:15;;;;;;;40.05;21.40;;;0.60;97.80;;;;;;5041045;28;20116;-69
2022/01/22 10:11:41;;;;;;;45.83;21.55;;;0.70;97.90;;;;;;5038467;28;20033;-69
2022/01/22 10:14:08;;;;;;;37.25;20.00;;;0.60;97.30;;;;;;5042102;28;20033;-69
2022/01/22 10:16:36;;;;;;;40.88;21.38;;;0.70;97.40;;;;;;5042115;28;20025;-69
2022/01/22 10:19:17;;;;;;;45.20;24.38;;;0.70;97.50;;;;;;5040074;28;20436;-69
2022/01/22 10:21:49;;;;;;;35.85;19.25;;;0.80;98.00;;;;;;5045217;28;20100;-69
2022/01/22 10:24:39;;;;;;;37.80;19.35;;;0.80;97.70;;;;;;5039129;28;20107;-69
2022/01/22 10:27:25;;;;;;;39.72;21.08;;;0.90;98.00;;;;;;5039284;28;20100;-70
2022/01/22 10:29:58;;;;;;;40.80;21.08;;;0.90;98.00;;;;;;5037822;28;20443;-69
2022/01/22 10:32:48;;;;;;;42.80;22.80;;;1.00;98.00;;;;;;5041446;28;20045;-69
2022/01/22 10:35:17;;;;;;;36.08;19.30;;;1.00;98.00;;;;;;5041914;28;20426;-69
2022/01/22 10:37:44;;;;;;;34.55;17.92;;;1.10;98.00;;;;;;5037475;28;20472;-68
2022/01/22 10:40:16;;;;;;;41.15;22.10;;;1.10;98.00;;;;;;5045155;28;20034;-69
2022/01/22 10:42:44;;;;;;;34.15;19.20;;;1.20;98.00;;;;;;5041499;28;20076;-69
2022/01/22 10:45:13;;;;;;;32.50;17.17;;;1.20;98.00;;;;;;5040237;28;20122;-70
2022/01/22 10:47:38;;;;;;;33.55;18.02;;;1.20;98.00;;;;;;5044999;28;20021;-69
2022/01/22 10:50:17;;;;;;;33.75;18.40;;;1.20;98.00;;;;;;5040032;28;20029;-70
2022/01/22 10:52:51;;;;;;;29.58;16.77;;;1.10;98.00;;;;;;5044094;28;20079;-71
2022/01/22 10:55:18;;;;;;;33.95;18.73;;;1.20;98.00;;;;;;5039477;28;20033;-69
2022/01/22 10:58:07;;;;;;;38.53;17.73;;;1.10;98.00;;;;;;5042135;28;20629;-69
2022/01/22 11:00:34;;;;;;;36.72;19.20;;;1.10;98.00;;;;;;5042442;28;20021;-69
2022/01/22 11:03:20;;;;;;;35.35;19.42;;;1.20;98.00;;;;;;5041288;28;20058;-69
2022/01/22 11:05:46;;;;;;;32.38;19.25;;;1.20;98.00;;;;;;5036749;28;20155;-69
2022/01/22 11:08:14;;;;;;;38.30;17.85;;;1.20;98.00;;;;;;5041860;28;20100;-70
2022/01/22 11:10:44;;;;;;;41.63;21.27;;;1.10;98.00;;;;;;5039601;28;20421;-69
2022/01/22 11:13:10;;;;;;;37.63;19.38;;;1.10;98.00;;;;;;5040879;28;20033;-70
2022/01/22 11:15:40;;;;;;;35.17;18.00;;;1.20;98.00;;;;;;5043786;28;20325;-70
2022/01/22 11:18:09;;;;;;;31.80;17.63;;;1.20;98.00;;;;;;5037931;28;20083;-69
2022/01/22 11:20:36;;;;;;;39.67;21.40;;;1.20;98.00;;;;;;5037576;28;20048;-69
2022/01/22 11:23:02;;;;;;;40.50;19.23;;;1.20;98.00;;;;;;5041511;28;20365;-69
2022/01/22 11:25:28;;;;;;;33.72;18.15;;;1.30;98.00;;;;;;5038855;28;20044;-68
2022/01/22 11:27:54;;;;;;;30.88;16.73;;;1.30;98.00;;;;;;5042903;28;20111;-69
2022/01/22 11:30:25;;;;;;;33.03;17.77;;;1.30;98.00;;;;;;5040267;28;20125;-69
2022/01/22 11:32:57;;;;;;;29.05;15.57;;;1.30;98.00;;;;;;5039521;28;20058;-69
2022/01/22 11:35:46;;;;;;;29.48;16.45;;;1.30;98.00;;;;;;5039467;28;20025;-68
2022/01/22 11:38:18;;;;;;;33.03;17.42;;;1.30;98.00;;;;;;5046397;28;20032;-69
2022/01/22 11:41:10;;;;;;;44.97;24.67;;;1.30;98.00;;;;;;5028389;28;20025;-69
2022/01/22 11:44:12;;;;;;;36.33;20.55;;;1.40;98.00;;;;;;5038534;28;20033;-69
2022/01/22 11:46:43;;;;;;;31.70;16.02;;;1.50;98.00;;;;;;5047274;28;20033;-70
2022/01/22 11:49:42;;;;;;;32.00;16.85;;;1.50;98.00;;;;;;5047603;28;20025;-70
2022/01/22 11:52:08;;;;;;;33.78;17.98;;;1.40;98.00;;;;;;5037145;28;20060;-69
2022/01/22 11:54:59;;;;;;;33.13;18.67;;;1.40;98.00;;;;;;5046827;28;20018;-68
2022/01/22 11:57:31;;;;;;;33.22;18.05;;;1.30;98.00;;;;;;5041105;28;20026;-68
2022/01/22 12:00:21;;;;;;;36.03;19.30;;;1.30;98.00;;;;;;5046322;28;20025;-68
2022/01/22 12:03:11;;;;;;;34.35;18.13;;;1.30;98.00;;;;;;5036123;28;20032;-68
2022/01/22 12:05:56;;;;;;;41.08;22.67;;;1.30;98.00;;;;;;5047126;28;20021;-68
2022/01/22 12:08:24;;;;;;;43.75;21.73;;;1.30;98.00;;;;;;5045728;28;20051;-68
2022/01/22 12:16:39;;;;;;;40.72;22.88;;;1.30;98.00;;;;;;5037053;28;20452;-69
2022/01/22 12:19:26;;;;;;;55.08;30.33;;;1.30;98.00;;;;;;5042303;28;20040;-69
2022/01/22 12:21:52;;;;;;;32.95;17.40;;;1.30;98.00;;;;;;5038963;28;20018;-70
2022/01/22 12:24:31;;;;;;;37.05;19.40;;;1.30;98.00;;;;;;5040073;28;20040;-65
2022/01/22 12:27:01;;;;;;;38.95;20.98;;;1.30;98.00;;;;;;5042407;28;20056;-68
2022/01/22 12:29:37;;;;;;;35.50;19.70;;;1.40;97.70;;;;;;5033930;28;20030;-67
2022/01/22 12:32:17;;;;;;;43.50;20.50;;;1.40;98.00;;;;;;5038598;28;20053;-67
2022/01/22 12:35:00;;;;;;;41.03;20.77;;;1.40;98.00;;;;;;5051039;28;20465;-68
2022/01/22 12:37:29;;;;;;;38.35;18.73;;;1.50;98.00;;;;;;5039909;28;20056;-67
2022/01/22 12:39:56;;;;;;;36.58;21.38;;;1.50;98.00;;;;;;5045598;28;20151;-68
2022/01/22 12:42:54;;;;;;;39.25;20.98;;;1.50;98.00;;;;;;5040591;28;20376;-68
2022/01/22 12:45:22;;;;;;;42.45;22.27;;;1.50;98.00;;;;;;5041175;28;20029;-68
2022/01/22 12:47:50;;;;;;;43.53;27.83;;;1.50;98.00;;;;;;5044869;28;20385;-68
2022/01/22 12:50:22;;;;;;;35.45;18.90;;;1.60;98.00;;;;;;5041505;28;20037;-68
2022/01/22 12:52:48;;;;;;;36.22;21.50;;;1.60;98.00;;;;;;5035832;28;20424;-68
2022/01/22 12:55:27;;;;;;;35.42;19.48;;;1.60;98.00;;;;;;5041440;28;20022;-67
2022/01/22 12:57:55;;;;;;;30.73;16.55;;;1.60;98.00;;;;;;5045863;28;20087;-67
2022/01/22 13:00:21;;;;;;;32.67;17.17;;;1.70;98.00;;;;;;5040760;28;20418;-68
2022/01/22 13:02:53;;;;;;;37.30;18.95;;;1.70;98.00;;;;;;5037249;28;20036;-67
2022/01/22 13:05:21;;;;;;;39.55;21.60;;;1.70;98.00;;;;;;5047014;28;20362;-67
2022/01/22 13:07:56;;;;;;;34.72;20.63;;;1.70;98.00;;;;;;5032923;28;20030;-68
2022/01/22 13:10:32;;;;;;;46.08;31.30;;;1.80;98.00;;;;;;5036098;28;20099;-67
2022/01/22 13:13:03;;;;;;;36.75;21.67;;;1.80;98.00;;;;;;5040192;28;20425;-67
2022/01/22 13:15:30;;;;;;;35.70;19.25;;;1.80;98.00;;;;;;5040690;28;20034;-68
2022/01/22 13:17:59;;;;;;;35.75;17.08;;;1.80;98.00;;;;;;5047855;28;20124;-67
2022/01/22 13:20:28;;;;;;;30.73;17.02;;;1.90;98.00;;;;;;5035297;28;20053;-68
2022/01/22 13:22:58;;;;;;;26.52;15.40;;;1.70;98.00;;;;;;5037785;28;20029;-68
2022/01/22 13:25:23;;;;;;;26.70;16.48;;;1.70;98.00;;;;;;5047068;28;20041;-69
2022/01/22 13:28:06;;;;;;;30.65;16.27;;;1.70;98.00;;;;;;5044826;28;20025;-69
2022/01/22 13:30:39;;;;;;;34.90;17.23;;;1.70;98.00;;;;;;5034165;28;20037;-69
2022/01/22 13:33:40;;;;;;;31.55;18.00;;;1.80;98.00;;;;;;5034827;28;20029;-68
2022/01/22 13:36:15;;;;;;;40.03;21.65;;;1.80;98.00;;;;;;5036021;28;20037;-68
2022/01/22 13:39:01;;;;;;;34.67;19.55;;;1.90;98.00;;;;;;5041519;28;20025;-67
2022/01/22 13:49:50;;;;;;;34.30;19.00;;;2.00;98.00;;;;;;5038044;28;20659;-67
2022/01/22 13:52:19;;;;;;;27.75;14.45;;;2.00;98.00;;;;;;5053519;28;20112;-68
2022/01/22 13:54:52;;;;;;;28.13;15.32;;;2.00;98.00;;;;;;5042132;28;20079;-68
2022/01/22 13:57:21;;;;;;;29.80;17.75;;;1.90;98.00;;;;;;5046806;28;20162;-68
2022/01/22 13:59:52;;;;;;;25.35;14.30;;;1.90;98.00;;;;;;5049698;28;20033;-69
2022/01/22 14:04:47;;;;;;;25.67;14.75;;;1.90;98.00;;;;;;5042276;28;20030;-67
2022/01/22 14:07:31;;;;;;;27.52;16.85;;;1.90;98.00;;;;;;5038952;28;20064;-67
2022/01/22 14:10:12;;;;;;;30.80;15.55;;;2.00;98.00;;;;;;5043580;28;20028;-69
2022/01/22 14:12:47;;;;;;;29.42;14.57;;;2.00;98.00;;;;;;5042807;28;20480;-68
2022/01/22 14:15:21;;;;;;;33.35;16.65;;;2.00;98.00;;;;;;5043923;28;20102;-68
2022/01/22 14:20:53;;;;;;;28.83;16.00;;;2.00;98.00;;;;;;5038578;28;20040;-68
2022/01/22 14:23:22;;;;;;;29.55;16.25;;;2.00;98.00;;;;;;5043135;28;20021;-67
2022/01/22 14:26:05;;;;;;;29.58;15.52;;;2.00;98.00;;;;;;5045187;28;20029;-68
2022/01/22 14:28:37;;;;;;;34.30;15.75;;;2.00;98.00;;;;;;5037353;28;20112;-69
2022/01/22 14:31:18;;;;;;;27.75;15.85;;;2.00;98.00;;;;;;5042264;28;20442;-69
2022/01/22 14:33:45;;;;;;;26.90;15.70;;;2.00;98.00;;;;;;5035736;28;20044;-68
2022/01/22 14:36:15;;;;;;;35.50;17.60;;;2.00;98.00;;;;;;5045797;28;20044;-68
2022/01/22 14:44:29;;;;;;;46.88;23.40;;;1.90;98.00;;;;;;5041161;28;20051;-68
2022/01/22 14:47:13;;;;;;;36.15;18.95;;;2.00;98.00;;;;;;5047885;28;20032;-68
2022/01/22 14:49:47;;;;;;;40.65;22.05;;;2.00;98.00;;;;;;5042101;28;20108;-68